Time;durP1;ratioP1;P1;durP2;ratioP2;P2;SDS_P1;SDS_P2;PMS_P1;PMS_P2;Temp;Humidity;BMP_temperature;BMP_pressure;BME280_temperature;BME280_humidity;BME280_pressure;Samples;Min_cycle;Max_cycle;Signal;HPM_P1;HPM_P2
2022/05/16 00:01:53;;;;;;;6.20;3.30;;;18.70;99.90;;;;;;5012841;28;20463;-87
2022/05/16 00:04:21;;;;;;;7.47;3.30;;;18.70;99.90;;;;;;5005484;28;20555;-89
2022/05/16 00:06:48;;;;;;;5.63;2.83;;;18.50;99.90;;;;;;4997284;28;20586;-89
2022/05/16 00:09:15;;;;;;;4.73;3.10;;;18.50;99.90;;;;;;4995116;28;20538;-89
2022/05/16 00:11:42;;;;;;;5.77;3.40;;;18.50;99.90;;;;;;5007406;28;20519;-89
2022/05/16 00:14:10;;;;;;;4.40;3.20;;;18.50;99.90;;;;;;5008986;28;20566;-88
2022/05/16 00:16:37;;;;;;;5.27;3.50;;;18.40;99.90;;;;;;5003410;28;20443;-88
2022/05/16 00:19:05;;;;;;;6.27;3.10;;;18.20;99.90;;;;;;4998566;28;20483;-88
2022/05/16 00:21:33;;;;;;;4.80;3.27;;;18.20;99.90;;;;;;5000453;28;20507;-89
2022/05/16 00:24:00;;;;;;;6.63;3.10;;;18.30;99.90;;;;;;5000324;28;20503;-88
2022/05/16 00:26:26;;;;;;;4.57;2.80;;;18.30;99.90;;;;;;5010424;28;21023;-89
2022/05/16 00:28:53;;;;;;;5.00;3.10;;;18.30;99.90;;;;;;5000249;28;20471;-89
2022/05/16 00:31:20;;;;;;;5.63;3.20;;;18.20;99.90;;;;;;5000089;28;20930;-88
2022/05/16 00:33:47;;;;;;;6.27;3.03;;;18.20;99.90;;;;;;4998408;28;20554;-88
2022/05/16 00:36:15;;;;;;;9.03;2.90;;;18.30;99.90;;;;;;5003676;28;20479;-88
2022/05/16 00:38:42;;;;;;;6.17;3.30;;;18.30;99.90;;;;;;5010109;28;20483;-88
2022/05/16 00:41:09;;;;;;;5.20;2.57;;;18.30;99.90;;;;;;5000631;28;20540;-89
2022/05/16 00:43:46;;;;;;;4.27;2.80;;;18.20;99.90;;;;;;4999349;28;20543;-88
2022/05/16 00:46:14;;;;;;;6.10;3.20;;;18.20;99.90;;;;;;4999802;28;21015;-87
2022/05/16 00:48:41;;;;;;;7.67;3.80;;;18.10;99.90;;;;;;5003681;28;20550;-88
2022/05/16 00:51:12;;;;;;;4.63;2.87;;;18.20;99.90;;;;;;5002169;28;20547;-88
2022/05/16 00:53:42;;;;;;;7.10;3.13;;;18.20;99.90;;;;;;4999428;28;20534;-87
2022/05/16 00:56:10;;;;;;;5.53;3.00;;;18.10;99.90;;;;;;5002032;28;20494;-88
2022/05/16 00:58:40;;;;;;;7.37;3.10;;;18.00;99.90;;;;;;4998905;28;20475;-87
2022/05/16 01:04:47;;;;;;;5.07;2.93;;;18.00;99.90;;;;;;4999056;28;20542;-87
2022/05/16 01:06:39;;;;;;;5.00;3.00;;;18.10;99.90;;;;;;5018073;28;20498;-86
2022/05/16 01:09:08;;;;;;;6.87;3.50;;;18.00;99.90;;;;;;5006260;28;20493;-88
2022/05/16 01:11:38;;;;;;;3.90;2.50;;;18.00;99.90;;;;;;4998186;28;20480;-89
2022/05/16 01:14:05;;;;;;;7.70;3.30;;;18.00;99.90;;;;;;4996391;28;20974;-89
2022/05/16 01:16:32;;;;;;;5.70;3.37;;;18.00;99.90;;;;;;4997305;28;20422;-89
2022/05/16 01:18:59;;;;;;;7.03;2.93;;;17.90;99.90;;;;;;4998798;28;20546;-89
2022/05/16 01:21:33;;;;;;;4.90;2.80;;;17.80;99.90;;;;;;4997077;28;20618;-88
2022/05/16 01:24:03;;;;;;;4.73;3.07;;;17.80;99.90;;;;;;4996825;28;20478;-88
2022/05/16 01:26:34;;;;;;;5.87;3.23;;;17.90;99.90;;;;;;4997453;28;20566;-89
2022/05/16 01:29:01;;;;;;;8.00;2.90;;;17.80;99.90;;;;;;4997470;28;20432;-89
2022/05/16 01:31:28;;;;;;;5.57;2.93;;;17.80;99.90;;;;;;4997156;28;21005;-88
2022/05/16 01:33:56;;;;;;;6.50;3.67;;;17.80;99.90;;;;;;4997598;28;20503;-88
2022/05/16 01:36:24;;;;;;;4.80;3.40;;;17.80;99.90;;;;;;5005098;28;20479;-87
2022/05/16 01:38:51;;;;;;;6.03;2.93;;;17.60;99.90;;;;;;5016547;28;20416;-85
2022/05/16 01:41:22;;;;;;;4.70;3.00;;;17.60;99.90;;;;;;4999889;28;20467;-88
2022/05/16 01:43:54;;;;;;;6.40;3.10;;;17.50;99.90;;;;;;4998828;28;20518;-88
2022/05/16 01:46:26;;;;;;;4.87;2.67;;;17.40;99.90;;;;;;4998104;28;20435;-88
2022/05/16 01:48:54;;;;;;;6.00;3.10;;;17.40;99.90;;;;;;5003705;28;20406;-87
2022/05/16 01:51:22;;;;;;;8.50;3.30;;;17.40;99.90;;;;;;5018785;28;20462;-88
2022/05/16 01:53:49;;;;;;;6.30;3.40;;;17.40;99.90;;;;;;4999039;28;20518;-89
2022/05/16 01:56:16;;;;;;;4.30;2.80;;;17.30;99.90;;;;;;4999763;28;20531;-87
2022/05/16 01:58:45;;;;;;;6.63;3.00;;;17.30;99.90;;;;;;5009933;28;20523;-86
2022/05/16 02:01:14;;;;;;;6.47;3.50;;;17.30;99.90;;;;;;5013511;28;20418;-88
2022/05/16 02:03:43;;;;;;;4.70;3.07;;;17.40;99.90;;;;;;5004473;28;20486;-89
2022/05/16 02:06:10;;;;;;;4.30;2.73;;;17.60;99.90;;;;;;5015299;28;20459;-88
2022/05/16 02:08:38;;;;;;;4.93;3.17;;;17.30;99.90;;;;;;5001395;28;20596;-87
2022/05/16 02:11:07;;;;;;;6.53;3.37;;;17.10;99.90;;;;;;4998346;28;20471;-89
2022/05/16 02:13:34;;;;;;;9.70;3.63;;;17.20;99.90;;;;;;4997120;28;20490;-89
2022/05/16 02:16:02;;;;;;;5.23;3.30;;;17.30;99.90;;;;;;4997877;28;20492;-88
2022/05/16 02:18:29;;;;;;;6.80;3.23;;;17.40;99.90;;;;;;5046167;22;20586;-87
2022/05/16 02:24:38;;;;;;;4.50;3.00;;;17.30;99.90;;;;;;5011043;28;20459;-88
2022/05/16 02:26:29;;;;;;;6.33;3.70;;;17.40;99.90;;;;;;4996010;28;20438;-88
2022/05/16 02:28:55;;;;;;;5.43;3.00;;;17.50;99.90;;;;;;4996335;28;20767;-87
2022/05/16 02:31:24;;;;;;;3.90;3.00;;;17.70;99.90;;;;;;4996590;28;20487;-88
2022/05/16 02:33:51;;;;;;;5.57;3.23;;;17.50;99.90;;;;;;4995972;28;20538;-88
2022/05/16 02:36:18;;;;;;;6.50;3.50;;;17.30;99.90;;;;;;4996810;28;20525;-88
2022/05/16 02:38:45;;;;;;;7.53;3.20;;;17.20;99.90;;;;;;5016435;28;20463;-87
2022/05/16 02:41:12;;;;;;;5.97;3.10;;;17.30;99.90;;;;;;5017878;28;20459;-87
2022/05/16 02:43:42;;;;;;;7.00;3.40;;;17.30;99.90;;;;;;5001024;28;20462;-88
2022/05/16 02:46:09;;;;;;;6.30;3.43;;;17.40;99.90;;;;;;5001606;28;20566;-87
2022/05/16 02:48:44;;;;;;;4.83;3.20;;;17.40;99.90;;;;;;5001418;28;20495;-88
2022/05/16 02:51:11;;;;;;;6.27;3.10;;;17.50;99.90;;;;;;5017869;28;20423;-85
2022/05/16 02:53:38;;;;;;;4.40;3.30;;;17.50;99.90;;;;;;5017813;28;20439;-85
2022/05/16 02:56:06;;;;;;;5.43;3.00;;;17.50;99.90;;;;;;5016651;28;20443;-87
2022/05/16 02:58:33;;;;;;;4.90;3.07;;;17.50;99.90;;;;;;5016847;28;20453;-88
2022/05/16 03:01:00;;;;;;;6.80;2.80;;;17.50;99.90;;;;;;5017044;28;20455;-87
2022/05/16 03:03:26;;;;;;;5.73;3.10;;;17.60;99.90;;;;;;5008367;28;20455;-88
2022/05/16 03:05:55;;;;;;;7.73;4.03;;;17.70;99.90;;;;;;5001145;28;20477;-88
2022/05/16 03:08:22;;;;;;;5.93;3.50;;;17.70;99.90;;;;;;5010583;28;20501;-88
2022/05/16 03:10:48;;;;;;;5.47;3.10;;;17.90;99.90;;;;;;5009210;28;20447;-87
2022/05/16 03:13:15;;;;;;;6.47;3.50;;;17.90;99.90;;;;;;4997208;28;20937;-88
2022/05/16 03:15:42;;;;;;;8.07;3.40;;;18.00;99.90;;;;;;4996031;28;20537;-88
2022/05/16 03:18:09;;;;;;;6.90;3.00;;;18.10;99.90;;;;;;5002908;28;20475;-88
2022/05/16 03:20:36;;;;;;;4.90;3.13;;;18.10;99.90;;;;;;5014577;28;20444;-88
2022/05/16 03:23:04;;;;;;;3.87;2.80;;;18.10;99.90;;;;;;4998602;28;20795;-89
2022/05/16 03:25:31;;;;;;;5.80;3.27;;;18.10;99.90;;;;;;4995182;28;20463;-88
2022/05/16 03:27:58;;;;;;;6.90;3.77;;;18.20;99.90;;;;;;4995158;28;20495;-89
2022/05/16 03:30:25;;;;;;;6.07;3.90;;;18.10;99.90;;;;;;4994968;28;20455;-88
2022/05/16 03:32:52;;;;;;;5.70;3.10;;;18.10;99.90;;;;;;4994763;28;20469;-88
2022/05/16 03:35:19;;;;;;;6.70;3.57;;;18.10;99.90;;;;;;4994691;28;20455;-88
2022/05/16 03:37:48;;;;;;;5.50;3.40;;;18.10;99.90;;;;;;4995400;28;20479;-88
2022/05/16 03:43:01;;;;;;;4.47;3.57;;;18.20;99.90;;;;;;4994793;28;20431;-88
2022/05/16 03:45:28;;;;;;;10.93;3.87;;;18.20;99.90;;;;;;4994832;28;20451;-88
2022/05/16 03:47:55;;;;;;;5.53;3.30;;;18.20;99.90;;;;;;4994335;28;20570;-88
2022/05/16 03:50:22;;;;;;;5.80;3.50;;;18.20;99.90;;;;;;4995077;28;20559;-88
2022/05/16 03:52:49;;;;;;;6.17;3.03;;;18.30;99.90;;;;;;4994581;28;20545;-88
2022/05/16 03:55:18;;;;;;;5.47;2.90;;;18.30;99.90;;;;;;4998179;28;20554;-88
2022/05/16 03:57:45;;;;;;;4.27;3.00;;;18.30;99.90;;;;;;4998770;28;20984;-88
2022/05/16 04:00:15;;;;;;;5.23;3.37;;;18.20;99.90;;;;;;4998654;28;20447;-88
2022/05/16 04:02:42;;;;;;;4.67;3.30;;;18.30;99.90;;;;;;4999186;28;20478;-89
2022/05/16 04:05:11;;;;;;;6.30;3.00;;;18.30;99.90;;;;;;4999351;28;20555;-88
2022/05/16 04:07:38;;;;;;;4.60;2.80;;;18.20;99.90;;;;;;4999583;28;20522;-88
2022/05/16 04:10:06;;;;;;;6.73;3.47;;;18.20;99.90;;;;;;5017858;28;20455;-87
2022/05/16 04:12:37;;;;;;;7.97;3.60;;;18.20;99.90;;;;;;5020783;28;20467;-88
2022/05/16 04:15:07;;;;;;;4.27;3.00;;;18.30;99.90;;;;;;5001505;28;20435;-88
2022/05/16 04:17:35;;;;;;;5.27;3.47;;;18.30;99.90;;;;;;4998796;28;20846;-89
2022/05/16 04:20:02;;;;;;;5.27;3.27;;;18.20;99.90;;;;;;4999394;28;20459;-89
2022/05/16 04:22:30;;;;;;;6.27;3.80;;;18.20;99.90;;;;;;4998415;28;20469;-89
2022/05/16 04:24:57;;;;;;;8.33;3.40;;;18.10;99.90;;;;;;5012382;28;20461;-89
2022/05/16 04:27:27;;;;;;;6.33;3.07;;;18.30;99.90;;;;;;5008722;28;20487;-89
2022/05/16 04:29:57;;;;;;;5.70;3.60;;;18.40;99.90;;;;;;5010130;28;20919;-89
2022/05/16 04:32:24;;;;;;;5.53;3.20;;;18.50;99.90;;;;;;5009302;28;20455;-90
2022/05/16 04:34:51;;;;;;;7.90;3.90;;;18.50;99.90;;;;;;5000326;28;20458;-88
2022/05/16 04:37:18;;;;;;;6.10;3.40;;;18.50;99.90;;;;;;4999699;28;20558;-90
2022/05/16 04:39:45;;;;;;;10.27;6.40;;;18.50;99.90;;;;;;4998736;28;20455;-89
2022/05/16 04:45:00;;;;;;;11.13;4.20;;;18.60;99.90;;;;;;4998763;28;20410;-88
2022/05/16 04:47:30;;;;;;;6.43;3.70;;;18.60;99.90;;;;;;5000535;28;20937;-88
2022/05/16 04:49:57;;;;;;;6.20;3.77;;;18.50;99.90;;;;;;5007593;28;20834;-87
2022/05/16 04:52:23;;;;;;;6.57;4.43;;;18.50;99.90;;;;;;5014610;28;20439;-87
2022/05/16 04:54:51;;;;;;;8.47;3.60;;;18.50;99.90;;;;;;5007941;28;20498;-88
2022/05/16 04:57:18;;;;;;;5.30;3.57;;;18.50;99.90;;;;;;5000629;28;20475;-87
2022/05/16 04:59:47;;;;;;;7.60;4.20;;;18.50;99.90;;;;;;5006530;28;20538;-87
2022/05/16 05:02:22;;;;;;;5.20;3.70;;;18.40;99.90;;;;;;5008789;28;20507;-86
2022/05/16 05:04:49;;;;;;;6.63;3.83;;;18.40;99.90;;;;;;5008337;28;20493;-88
2022/05/16 05:07:16;;;;;;;9.97;3.90;;;18.40;99.90;;;;;;5000309;28;20467;-88
2022/05/16 05:15:30;;;;;;;8.90;3.73;;;18.40;99.90;;;;;;4978124;28;20589;-87
2022/05/16 05:17:59;;;;;;;6.47;4.20;;;18.50;99.90;;;;;;5002367;28;20501;-88
2022/05/16 05:20:27;;;;;;;9.30;4.47;;;18.50;99.90;;;;;;5001520;28;20442;-87
2022/05/16 05:22:54;;;;;;;6.20;3.53;;;18.60;99.90;;;;;;4997938;28;20452;-88
2022/05/16 05:25:22;;;;;;;8.53;3.83;;;18.70;99.90;;;;;;4999370;28;20991;-87
2022/05/16 05:27:49;;;;;;;10.20;4.47;;;18.60;99.90;;;;;;4998676;28;20579;-87
2022/05/16 05:30:20;;;;;;;5.07;4.13;;;18.70;99.90;;;;;;5000351;28;20554;-87
2022/05/16 05:32:47;;;;;;;6.03;3.77;;;18.70;99.90;;;;;;5001414;28;20435;-87
2022/05/16 05:35:17;;;;;;;5.80;4.53;;;18.70;99.90;;;;;;5002439;28;20818;-87
2022/05/16 05:37:47;;;;;;;7.10;4.03;;;18.70;99.90;;;;;;4999668;28;20492;-87
2022/05/16 05:40:15;;;;;;;8.20;4.00;;;18.80;99.90;;;;;;5000770;28;20570;-88
2022/05/16 05:42:42;;;;;;;8.73;4.47;;;18.90;99.90;;;;;;4998652;28;20486;-88
2022/05/16 05:45:11;;;;;;;7.80;4.37;;;19.00;99.90;;;;;;4999335;28;20478;-88
2022/05/16 05:47:38;;;;;;;5.83;3.93;;;19.00;99.90;;;;;;5001608;28;20988;-88
2022/05/16 05:50:06;;;;;;;7.00;4.30;;;19.00;99.90;;;;;;5001399;28;20753;-87
2022/05/16 05:52:35;;;;;;;6.50;4.20;;;19.20;99.90;;;;;;4999048;28;20470;-88
2022/05/16 05:55:02;;;;;;;10.33;5.50;;;19.30;99.90;;;;;;4999156;28;20520;-88
2022/05/16 05:57:29;;;;;;;9.10;4.10;;;19.20;99.90;;;;;;4998324;28;20463;-87
2022/05/16 05:59:57;;;;;;;7.43;4.50;;;19.30;99.90;;;;;;4999776;28;20526;-87
2022/05/16 06:02:25;;;;;;;9.23;4.37;;;19.40;99.90;;;;;;5000730;28;20920;-88
2022/05/16 06:04:52;;;;;;;9.70;4.50;;;19.50;99.90;;;;;;5001594;28;20470;-88
2022/05/16 06:07:19;;;;;;;7.57;4.13;;;19.60;99.90;;;;;;5016779;28;20502;-87
2022/05/16 06:09:51;;;;;;;8.27;5.27;;;19.70;99.90;;;;;;5017354;28;20491;-87
2022/05/16 06:12:19;;;;;;;9.50;4.27;;;19.80;99.90;;;;;;5016135;28;20504;-87
2022/05/16 06:14:45;;;;;;;8.10;4.90;;;20.00;99.90;;;;;;5013852;28;20498;-88
2022/05/16 06:17:13;;;;;;;9.30;5.03;;;20.00;99.90;;;;;;5003106;28;20550;-88
2022/05/16 06:19:40;;;;;;;6.90;4.60;;;20.00;99.90;;;;;;4999908;28;20491;-88
2022/05/16 06:22:10;;;;;;;8.80;4.13;;;20.20;99.90;;;;;;5001000;28;20474;-87
2022/05/16 06:27:22;;;;;;;7.33;3.97;;;20.30;99.90;;;;;;5017139;28;20559;-87
2022/05/16 06:29:49;;;;;;;8.43;4.83;;;20.40;99.90;;;;;;5018078;28;20502;-87
2022/05/16 06:32:16;;;;;;;10.17;4.60;;;20.30;99.90;;;;;;5017969;28;20497;-86
2022/05/16 06:34:43;;;;;;;7.40;4.87;;;20.30;99.90;;;;;;5004348;28;20538;-88
2022/05/16 06:37:12;;;;;;;8.23;4.70;;;20.30;99.90;;;;;;4998629;28;20554;-88
2022/05/16 06:39:39;;;;;;;12.20;4.20;;;20.40;99.90;;;;;;4997342;28;20462;-88
2022/05/16 06:42:07;;;;;;;11.53;4.50;;;20.50;99.90;;;;;;5005243;28;20939;-88
2022/05/16 06:44:35;;;;;;;8.63;4.70;;;20.60;99.90;;;;;;5003893;28;20842;-86
2022/05/16 06:47:02;;;;;;;9.40;4.97;;;20.70;99.90;;;;;;5000315;28;20475;-87
2022/05/16 06:49:29;;;;;;;7.03;4.10;;;20.90;99.90;;;;;;5003359;28;20479;-87
2022/05/16 06:51:56;;;;;;;8.10;4.03;;;21.10;99.90;;;;;;5003249;28;20466;-87
2022/05/16 06:54:23;;;;;;;9.43;4.13;;;21.20;99.90;;;;;;4999546;28;20531;-89
2022/05/16 06:56:50;;;;;;;8.03;4.27;;;21.30;99.90;;;;;;5011656;28;20475;-87
2022/05/16 06:59:18;;;;;;;11.83;5.00;;;21.50;99.90;;;;;;5011273;28;20510;-87
2022/05/16 07:01:47;;;;;;;5.97;4.03;;;21.60;99.90;;;;;;5012949;28;20451;-88
2022/05/16 07:04:14;;;;;;;5.13;3.70;;;21.80;99.90;;;;;;4998220;28;20451;-88
2022/05/16 07:06:41;;;;;;;8.40;4.13;;;21.90;99.90;;;;;;4997707;28;20534;-88
2022/05/16 07:09:08;;;;;;;13.50;4.80;;;22.10;99.90;;;;;;5002478;28;20487;-88
2022/05/16 07:11:34;;;;;;;7.17;5.10;;;22.30;99.90;;;;;;4998218;28;20542;-88
2022/05/16 07:14:04;;;;;;;5.60;4.20;;;22.30;99.90;;;;;;5000176;28;20482;-88
2022/05/16 07:16:31;;;;;;;14.83;5.60;;;22.40;99.90;;;;;;5000065;28;20886;-88
2022/05/16 07:19:15;;;;;;;8.73;4.50;;;22.30;99.90;;;;;;5002264;28;20549;-88
2022/05/16 07:21:45;;;;;;;7.00;3.70;;;22.30;99.90;;;;;;4999993;28;20475;-88
2022/05/16 07:24:12;;;;;;;11.03;5.30;;;22.50;99.90;;;;;;5007856;28;20438;-89
2022/05/16 07:29:34;;;;;;;8.20;4.57;;;22.80;99.90;;;;;;5019927;28;20454;-88
2022/05/16 07:32:09;;;;;;;8.33;4.90;;;22.90;99.90;;;;;;5020279;28;20434;-89
2022/05/16 07:34:41;;;;;;;5.63;4.40;;;23.10;99.90;;;;;;5020150;28;20430;-88
2022/05/16 07:37:18;;;;;;;9.20;4.97;;;23.30;99.90;;;;;;5019699;28;20479;-89
2022/05/16 07:39:45;;;;;;;8.30;4.83;;;23.40;99.90;;;;;;5019107;28;20492;-88
2022/05/16 07:42:19;;;;;;;8.37;5.13;;;23.50;99.90;;;;;;5019914;28;20462;-88
2022/05/16 07:44:55;;;;;;;7.00;5.30;;;23.50;99.90;;;;;;5019956;28;20432;-89
2022/05/16 07:47:35;;;;;;;;;;;;;;;;;;;;;
2022/05/16 07:52:56;;;;;;;7.50;5.07;;;23.60;99.90;;;;;;5018545;28;20443;-89
2022/05/16 07:55:26;;;;;;;8.37;6.40;;;23.60;99.90;;;;;;5009862;28;20432;-88
2022/05/16 07:57:53;;;;;;;6.57;5.30;;;23.60;99.90;;;;;;5011868;28;20502;-86
2022/05/16 08:00:22;;;;;;;8.73;5.60;;;23.60;99.90;;;;;;5017107;28;20841;-89
2022/05/16 08:02:53;;;;;;;10.23;5.57;;;23.50;99.90;;;;;;5005473;28;20550;-89
2022/05/16 08:05:22;;;;;;;9.80;6.20;;;23.60;99.90;;;;;;4999786;28;20847;-88
2022/05/16 08:10:37;;;;;;;8.33;5.67;;;23.30;99.90;;;;;;5000002;28;20410;-88
2022/05/16 08:13:07;;;;;;;11.60;6.20;;;23.30;99.90;;;;;;4999830;28;20451;-88
2022/05/16 08:15:35;;;;;;;8.60;6.40;;;23.30;99.90;;;;;;4998530;28;20494;-88
2022/05/16 08:18:02;;;;;;;7.83;6.20;;;23.30;99.90;;;;;;5000785;28;20535;-88
2022/05/16 08:20:31;;;;;;;9.23;6.30;;;23.30;99.90;;;;;;5002918;28;20499;-88
2022/05/16 08:23:03;;;;;;;11.40;6.93;;;23.20;99.90;;;;;;5004540;28;20471;-88
2022/05/16 08:25:58;;;;;;;12.03;6.87;;;23.10;99.90;;;;;;5005336;28;20530;-88
2022/05/16 08:31:00;;;;;;;10.27;8.07;;;23.10;99.90;;;;;;5038221;22;20515;-88
2022/05/16 08:33:28;;;;;;;12.37;7.17;;;23.10;99.90;;;;;;5011632;28;20436;-89
2022/05/16 08:41:34;;;;;;;9.20;7.33;;;23.10;99.90;;;;;;5001725;28;20411;-88
2022/05/16 08:44:09;;;;;;;8.90;7.40;;;23.20;99.90;;;;;;5018966;28;20439;-88
2022/05/16 08:46:39;;;;;;;12.10;7.47;;;23.20;99.90;;;;;;5018470;28;20451;-88
2022/05/16 08:49:23;;;;;;;11.57;7.00;;;23.30;99.90;;;;;;5005959;28;20482;-89
2022/05/16 08:52:03;;;;;;;8.60;6.40;;;23.40;99.90;;;;;;5019876;28;20431;-90
2022/05/16 08:54:40;;;;;;;9.97;6.23;;;23.40;99.90;;;;;;5018757;28;20459;-89
2022/05/16 08:57:12;;;;;;;13.03;7.23;;;23.50;99.90;;;;;;5018107;28;20963;-89
2022/05/16 08:59:42;;;;;;;10.63;5.63;;;23.80;99.90;;;;;;5004980;28;20487;-89
2022/05/16 09:02:16;;;;;;;9.80;6.47;;;24.00;99.90;;;;;;5004223;28;20459;-89
2022/05/16 09:04:48;;;;;;;8.97;6.23;;;24.20;99.90;;;;;;5002158;28;20439;-88
2022/05/16 09:07:36;;;;;;;9.77;6.40;;;24.50;99.90;;;;;;5002732;28;20455;-90
2022/05/16 09:10:07;;;;;;;8.27;5.93;;;24.60;99.90;;;;;;5000996;28;20486;-89
2022/05/16 09:12:43;;;;;;;8.87;6.27;;;24.70;99.90;;;;;;5002482;28;20455;-89
2022/05/16 09:15:17;;;;;;;7.17;6.47;;;24.80;99.90;;;;;;5004120;28;20443;-90
2022/05/16 09:18:00;;;;;;;13.20;6.47;;;24.90;99.90;;;;;;5003241;28;20477;-88
2022/05/16 09:20:35;;;;;;;8.63;5.97;;;25.10;99.90;;;;;;5015889;28;20531;-88
2022/05/16 09:23:19;;;;;;;11.17;7.03;;;25.30;99.00;;;;;;5015887;28;20428;-88
2022/05/16 09:25:55;;;;;;;12.10;6.37;;;25.40;98.50;;;;;;5016813;28;20440;-88
2022/05/16 09:28:37;;;;;;;9.03;5.70;;;25.60;97.00;;;;;;5005190;28;20514;-88
2022/05/16 09:31:13;;;;;;;12.03;7.03;;;25.70;96.30;;;;;;5005284;28;20469;-88
2022/05/16 09:33:45;;;;;;;11.73;6.73;;;25.70;96.10;;;;;;5005154;28;20427;-88
2022/05/16 09:36:14;;;;;;;7.80;5.33;;;25.80;96.00;;;;;;5004854;28;20435;-88
2022/05/16 09:38:45;;;;;;;9.83;6.03;;;25.90;95.10;;;;;;5006518;28;20503;-88
2022/05/16 09:41:22;;;;;;;10.87;6.40;;;26.00;95.40;;;;;;5004921;28;20447;-89
2022/05/16 09:44:16;;;;;;;8.27;5.93;;;25.90;94.20;;;;;;5010833;28;20455;-89
2022/05/16 09:46:54;;;;;;;10.50;5.73;;;26.00;94.00;;;;;;5009040;28;20440;-89
2022/05/16 09:49:31;;;;;;;8.80;6.20;;;25.90;93.70;;;;;;5014623;28;20491;-88
2022/05/16 09:52:02;;;;;;;10.83;5.27;;;25.70;93.30;;;;;;5018024;28;20443;-89
2022/05/16 09:55:00;;;;;;;7.47;5.93;;;25.50;93.80;;;;;;5005873;28;20531;-90
2022/05/16 09:57:55;;;;;;;9.17;5.90;;;25.70;94.00;;;;;;5006830;28;20454;-89
2022/05/16 10:00:31;;;;;;;9.47;5.57;;;25.50;94.10;;;;;;5006924;28;20460;-90
2022/05/16 10:03:13;;;;;;;10.10;5.63;;;25.40;94.00;;;;;;5005883;28;20447;-88
2022/05/16 10:05:47;;;;;;;10.20;5.97;;;25.30;94.80;;;;;;5007976;28;20522;-88
2022/05/16 10:08:25;;;;;;;9.33;5.40;;;25.60;93.60;;;;;;5005814;28;20522;-90
2022/05/16 10:10:56;;;;;;;12.77;5.83;;;25.90;93.00;;;;;;5006044;28;20491;-89
2022/05/16 10:13:27;;;;;;;8.73;5.87;;;26.10;93.20;;;;;;5005532;28;20451;-88
2022/05/16 10:16:07;;;;;;;11.10;6.73;;;26.00;93.00;;;;;;5004188;28;20521;-88
2022/05/16 10:21:40;;;;;;;7.90;5.00;;;26.10;92.80;;;;;;5010597;28;20491;-90
2022/05/16 10:24:18;;;;;;;17.00;6.20;;;26.10;91.90;;;;;;5004660;28;20490;-89
2022/05/16 10:27:02;;;;;;;10.10;6.53;;;26.00;92.50;;;;;;5003675;28;20989;-89
2022/05/16 10:29:32;;;;;;;15.90;7.47;;;26.10;92.70;;;;;;5002670;28;20618;-88
2022/05/16 10:34:56;;;;;;;9.23;7.20;;;26.10;92.30;;;;;;5003371;28;20844;-88
2022/05/16 10:37:39;;;;;;;6.90;5.90;;;25.90;92.90;;;;;;5018713;28;20494;-89
2022/05/16 10:40:14;;;;;;;8.67;5.00;;;26.00;92.60;;;;;;5018518;28;20482;-89
2022/05/16 10:42:50;;;;;;;12.20;5.40;;;25.90;92.40;;;;;;5012622;28;20462;-87
2022/05/16 10:45:20;;;;;;;8.00;5.97;;;25.70;92.70;;;;;;5007864;28;20447;-89
2022/05/16 10:47:54;;;;;;;8.07;5.70;;;25.70;93.00;;;;;;5008771;28;20486;-89
2022/05/16 10:50:26;;;;;;;8.30;5.90;;;25.70;93.20;;;;;;5001352;28;20871;-89
2022/05/16 10:52:59;;;;;;;10.00;5.63;;;25.80;93.20;;;;;;5000825;28;20494;-88
2022/05/16 10:55:29;;;;;;;9.60;5.33;;;25.60;92.90;;;;;;5000143;28;20510;-89
2022/05/16 10:58:17;;;;;;;8.90;4.57;;;25.40;92.90;;;;;;4999655;28;20821;-89
2022/05/16 11:00:51;;;;;;;9.33;5.40;;;25.50;93.10;;;;;;4998957;28;20989;-88
2022/05/16 11:03:41;;;;;;;8.63;4.70;;;25.50;92.80;;;;;;4997847;28;20441;-89
2022/05/16 11:06:43;;;;;;;8.60;4.20;;;25.50;92.70;;;;;;4997999;28;20542;-89
2022/05/16 11:09:19;;;;;;;9.17;4.87;;;25.60;92.80;;;;;;5001319;28;20466;-89
2022/05/16 11:11:57;;;;;;;8.87;4.67;;;25.60;92.90;;;;;;5002949;28;20474;-89
2022/05/16 11:14:34;;;;;;;7.17;3.70;;;25.70;92.90;;;;;;5001033;28;20448;-89
2022/05/16 11:17:08;;;;;;;8.93;3.97;;;25.50;92.80;;;;;;4999079;28;20443;-89
2022/05/16 11:19:48;;;;;;;9.07;4.20;;;25.20;93.70;;;;;;4998731;28;20986;-88
2022/05/16 11:22:21;;;;;;;6.00;4.27;;;24.80;94.50;;;;;;4999018;28;20511;-89
2022/05/16 11:24:58;;;;;;;9.80;5.40;;;24.60;95.10;;;;;;4999897;28;20537;-90
2022/05/16 11:27:44;;;;;;;6.63;4.20;;;24.50;95.40;;;;;;5000531;28;20555;-88
2022/05/16 11:30:22;;;;;;;7.80;3.80;;;24.50;95.70;;;;;;4999928;28;20517;-89
2022/05/16 11:33:04;;;;;;;9.10;3.40;;;24.50;95.60;;;;;;5005802;28;20424;-89
2022/05/16 11:35:37;;;;;;;7.70;3.60;;;24.50;95.00;;;;;;5004399;28;20507;-89
2022/05/16 11:38:37;;;;;;;8.33;3.70;;;24.50;94.80;;;;;;5000129;28;20530;-89
2022/05/16 11:41:24;;;;;;;8.03;3.47;;;24.30;94.60;;;;;;5000471;28;20554;-89
2022/05/16 11:44:02;;;;;;;8.13;3.07;;;24.00;95.00;;;;;;5016166;28;20577;-88
2022/05/16 11:46:43;;;;;;;7.73;3.20;;;23.90;95.20;;;;;;5007223;28;20455;-87
2022/05/16 11:52:23;;;;;;;10.43;2.50;;;23.90;94.70;;;;;;5016513;28;20531;-88
2022/05/16 11:54:59;;;;;;;4.90;2.40;;;23.80;94.50;;;;;;5017454;28;20446;-87
2022/05/16 12:00:35;;;;;;;6.30;2.80;;;23.60;93.50;;;;;;5017357;28;20470;-88
2022/05/16 12:03:40;;;;;;;5.00;2.63;;;23.50;93.30;;;;;;5012166;28;20450;-89
2022/05/16 12:06:25;;;;;;;5.60;2.30;;;23.40;93.10;;;;;;5007987;28;20865;-88
2022/05/16 12:09:19;;;;;;;4.40;2.23;;;23.10;93.60;;;;;;5006141;28;20451;-89
2022/05/16 12:12:04;;;;;;;6.80;2.17;;;22.80;95.10;;;;;;5002619;28;20510;-89
2022/05/16 12:14:34;;;;;;;5.50;2.73;;;22.70;98.10;;;;;;5002334;28;20446;-89
2022/05/16 12:17:20;;;;;;;8.93;3.73;;;22.40;99.90;;;;;;5008421;28;20462;-90
2022/05/16 12:20:20;;;;;;;6.50;2.60;;;22.20;99.90;;;;;;5010515;28;20490;-90
2022/05/16 13:04:04;;;;;;;8.43;3.00;;;20.10;99.90;;;;;;5157985;22;20525;-90
2022/05/16 13:06:53;;;;;;;9.47;3.00;;;20.20;99.90;;;;;;5011919;28;20441;-89
2022/05/16 13:09:38;;;;;;;9.20;2.70;;;20.20;99.90;;;;;;5007886;28;20495;-89
2022/05/16 13:12:22;;;;;;;9.40;2.77;;;20.30;99.90;;;;;;5001744;28;20466;-89
2022/05/16 13:15:04;;;;;;;6.87;2.53;;;20.40;99.90;;;;;;5001684;28;20462;-88
2022/05/16 13:17:36;;;;;;;5.30;2.60;;;20.80;99.90;;;;;;5010266;28;20458;-88
2022/05/16 13:20:09;;;;;;;5.40;2.57;;;21.00;99.90;;;;;;5009696;28;20459;-89
2022/05/16 13:22:37;;;;;;;7.73;3.00;;;21.10;99.90;;;;;;5002220;28;20451;-88
2022/05/16 13:25:06;;;;;;;5.77;3.00;;;21.40;99.90;;;;;;4999620;28;20460;-88
2022/05/16 13:30:30;;;;;;;7.83;2.50;;;21.80;99.90;;;;;;5002926;28;20513;-88
2022/05/16 13:32:59;;;;;;;7.60;2.53;;;22.10;99.90;;;;;;5011792;28;20561;-88
2022/05/16 13:35:35;;;;;;;7.17;2.80;;;22.30;99.90;;;;;;5016517;28;20444;-88
2022/05/16 13:38:11;;;;;;;5.00;2.50;;;22.30;99.90;;;;;;5017218;28;20447;-88
2022/05/16 13:40:48;;;;;;;5.57;2.30;;;22.60;99.90;;;;;;5003369;28;21027;-88
2022/05/16 13:43:23;;;;;;;5.70;2.47;;;22.50;99.90;;;;;;5004396;28;20442;-89
2022/05/16 13:46:02;;;;;;;6.33;3.10;;;22.00;99.90;;;;;;5007125;28;20455;-88
2022/05/16 13:48:29;;;;;;;6.93;3.73;;;22.10;99.90;;;;;;5008863;28;20471;-89
2022/05/16 13:51:00;;;;;;;5.73;2.87;;;22.30;99.90;;;;;;5005078;28;20479;-87
2022/05/16 13:53:46;;;;;;;8.03;2.90;;;22.50;99.90;;;;;;5005597;28;20459;-90
2022/05/16 13:56:18;;;;;;;8.53;3.40;;;22.50;99.90;;;;;;5001007;28;20416;-89
2022/05/16 13:58:46;;;;;;;7.07;3.50;;;22.70;99.90;;;;;;5001393;28;20793;-89
2022/05/16 14:04:22;;;;;;;9.00;3.27;;;23.00;99.90;;;;;;5001466;28;20439;-90
2022/05/16 14:07:03;;;;;;;7.77;4.27;;;23.20;99.90;;;;;;5003817;28;20459;-89
2022/05/16 14:09:43;;;;;;;7.53;3.57;;;23.40;99.90;;;;;;5003971;28;20530;-91
2022/05/16 14:12:18;;;;;;;6.00;3.47;;;23.60;99.90;;;;;;5002056;28;20443;-89
2022/05/16 14:14:51;;;;;;;9.60;4.43;;;23.90;99.90;;;;;;5016271;28;20424;-89
2022/05/16 14:17:40;;;;;;;8.00;4.03;;;23.90;99.90;;;;;;5012341;28;20463;-89
2022/05/16 14:20:13;;;;;;;8.17;4.77;;;23.80;99.90;;;;;;5004830;28;21039;-89
2022/05/16 14:22:48;;;;;;;7.67;4.73;;;23.90;99.90;;;;;;5011455;28;20486;-89
2022/05/16 14:25:32;;;;;;;6.60;4.33;;;24.20;99.90;;;;;;5013809;28;20479;-89
2022/05/16 14:28:12;;;;;;;6.67;3.43;;;24.50;99.90;;;;;;5010665;28;20424;-90
2022/05/16 14:31:00;;;;;;;9.37;3.60;;;24.60;99.90;;;;;;5009481;28;20569;-89
2022/05/16 14:33:43;;;;;;;6.80;4.40;;;24.80;99.90;;;;;;5008599;28;20446;-88
2022/05/16 14:36:12;;;;;;;5.47;3.90;;;25.00;99.90;;;;;;5001919;28;20443;-89
2022/05/16 14:38:44;;;;;;;7.20;3.70;;;25.30;99.90;;;;;;5000262;28;20466;-86
2022/05/16 14:41:20;;;;;;;5.63;3.67;;;25.10;99.90;;;;;;4999998;28;20459;-87
2022/05/16 14:44:00;;;;;;;7.03;3.97;;;25.00;99.90;;;;;;4998988;28;20462;-89
2022/05/16 14:46:50;;;;;;;11.23;3.83;;;25.20;99.90;;;;;;4999186;28;20420;-89